sensor_id;sensor_type;location;lat;lon;timestamp;temperature;humidity
25214;DHT22;13160;51.834;4.706;2022-09-02T02:06:28;16.90;83.70
25214;DHT22;13160;51.834;4.706;2022-09-02T02:10:15;16.80;83.90
25214;DHT22;13160;51.834;4.706;2022-09-02T02:17:35;16.80;84.50
25214;DHT22;13160;51.834;4.706;2022-09-02T03:19:04;16.40;87.20
25214;DHT22;13160;51.834;4.706;2022-09-02T03:25:54;16.30;88.00
25214;DHT22;13160;51.834;4.706;2022-09-02T03:29:37;16.40;88.00
25214;DHT22;13160;51.834;4.706;2022-09-02T03:41:05;16.30;88.30
25214;DHT22;13160;51.834;4.706;2022-09-02T03:48:49;16.30;89.10
25214;DHT22;13160;51.834;4.706;2022-09-02T04:55:43;16.10;89.70
25214;DHT22;13160;51.834;4.706;2022-09-02T05:23:08;16.20;90.00
25214;DHT22;13160;51.834;4.706;2022-09-02T05:30:22;16.20;90.00
25214;DHT22;13160;51.834;4.706;2022-09-02T05:47:09;16.20;90.20
25214;DHT22;13160;51.834;4.706;2022-09-02T05:50:12;16.20;90.30
25214;DHT22;13160;51.834;4.706;2022-09-02T05:53:07;16.30;90.40
25214;DHT22;13160;51.834;4.706;2022-09-02T05:57:05;16.30;90.40
25214;DHT22;13160;51.834;4.706;2022-09-02T05:59:48;16.30;90.30
25214;DHT22;13160;51.834;4.706;2022-09-02T06:02:30;16.30;90.50
25214;DHT22;13160;51.834;4.706;2022-09-02T06:08:52;16.40;90.40
25214;DHT22;13160;51.834;4.706;2022-09-02T06:31:54;16.70;91.20
25214;DHT22;13160;51.834;4.706;2022-09-02T06:43:33;16.90;90.90
25214;DHT22;13160;51.834;4.706;2022-09-02T08:19:23;22.50;73.70
25214;DHT22;13160;51.834;4.706;2022-09-02T08:21:55;22.70;72.90
25214;DHT22;13160;51.834;4.706;2022-09-02T08:24:30;22.90;72.10
25214;DHT22;13160;51.834;4.706;2022-09-02T08:26:58;23.10;71.60
25214;DHT22;13160;51.834;4.706;2022-09-02T08:29:27;23.30;70.90
25214;DHT22;13160;51.834;4.706;2022-09-02T08:31:55;23.30;70.20
25214;DHT22;13160;51.834;4.706;2022-09-02T08:34:25;23.40;69.90
25214;DHT22;13160;51.834;4.706;2022-09-02T08:36:54;23.40;70.00
25214;DHT22;13160;51.834;4.706;2022-09-02T08:39:23;23.60;70.20
25214;DHT22;13160;51.834;4.706;2022-09-02T08:41:56;23.70;69.70
25214;DHT22;13160;51.834;4.706;2022-09-02T08:44:34;23.80;69.50
25214;DHT22;13160;51.834;4.706;2022-09-02T08:47:07;23.90;69.10
25214;DHT22;13160;51.834;4.706;2022-09-02T08:49:41;24.00;68.90
25214;DHT22;13160;51.834;4.706;2022-09-02T08:52:16;24.00;68.40
25214;DHT22;13160;51.834;4.706;2022-09-02T08:54:52;24.10;68.60
25214;DHT22;13160;51.834;4.706;2022-09-02T08:57:22;24.20;68.30
25214;DHT22;13160;51.834;4.706;2022-09-02T08:59:55;24.20;68.10
25214;DHT22;13160;51.834;4.706;2022-09-02T09:02:32;24.30;68.00
25214;DHT22;13160;51.834;4.706;2022-09-02T09:05:22;24.40;67.10
25214;DHT22;13160;51.834;4.706;2022-09-02T09:08:04;24.50;67.10
25214;DHT22;13160;51.834;4.706;2022-09-02T09:10:49;24.50;67.30
25214;DHT22;13160;51.834;4.706;2022-09-02T09:16:41;24.60;66.90
25214;DHT22;13160;51.834;4.706;2022-09-02T09:19:16;24.60;66.50
25214;DHT22;13160;51.834;4.706;2022-09-02T09:21:53;24.70;66.20
25214;DHT22;13160;51.834;4.706;2022-09-02T09:24:27;24.70;66.40
25214;DHT22;13160;51.834;4.706;2022-09-02T09:26:59;24.90;66.80
25214;DHT22;13160;51.834;4.706;2022-09-02T09:29:31;24.90;66.10
25214;DHT22;13160;51.834;4.706;2022-09-02T09:32:00;25.00;65.90
25214;DHT22;13160;51.834;4.706;2022-09-02T09:34:58;25.00;65.70
25214;DHT22;13160;51.834;4.706;2022-09-02T09:37:35;25.00;65.40
25214;DHT22;13160;51.834;4.706;2022-09-02T09:40:28;25.00;65.50
25214;DHT22;13160;51.834;4.706;2022-09-02T09:43:11;25.00;65.40
25214;DHT22;13160;51.834;4.706;2022-09-02T09:45:42;25.00;65.50
25214;DHT22;13160;51.834;4.706;2022-09-02T09:48:17;25.00;65.30
25214;DHT22;13160;51.834;4.706;2022-09-02T09:51:10;25.10;65.20
25214;DHT22;13160;51.834;4.706;2022-09-02T09:53:44;25.20;65.30
25214;DHT22;13160;51.834;4.706;2022-09-02T09:56:24;25.20;65.00
25214;DHT22;13160;51.834;4.706;2022-09-02T09:58:55;25.20;64.40
25214;DHT22;13160;51.834;4.706;2022-09-02T10:01:27;25.20;64.80
25214;DHT22;13160;51.834;4.706;2022-09-02T10:03:57;25.30;64.40
25214;DHT22;13160;51.834;4.706;2022-09-02T10:06:37;25.40;64.20
25214;DHT22;13160;51.834;4.706;2022-09-02T10:09:29;25.50;63.80
25214;DHT22;13160;51.834;4.706;2022-09-02T10:12:01;25.60;63.50
25214;DHT22;13160;51.834;4.706;2022-09-02T10:14:33;25.60;64.10
25214;DHT22;13160;51.834;4.706;2022-09-02T10:17:18;25.70;63.20
25214;DHT22;13160;51.834;4.706;2022-09-02T10:19:59;25.80;63.50
25214;DHT22;13160;51.834;4.706;2022-09-02T10:22:56;26.00;63.40
25214;DHT22;13160;51.834;4.706;2022-09-02T10:25:41;26.00;62.50
25214;DHT22;13160;51.834;4.706;2022-09-02T10:28:24;26.10;62.40
25214;DHT22;13160;51.834;4.706;2022-09-02T10:31:07;26.20;62.10
25214;DHT22;13160;51.834;4.706;2022-09-02T10:33:50;26.30;62.00
25214;DHT22;13160;51.834;4.706;2022-09-02T10:36:30;26.40;62.50
25214;DHT22;13160;51.834;4.706;2022-09-02T10:39:10;26.50;62.00
25214;DHT22;13160;51.834;4.706;2022-09-02T10:41:47;26.60;61.70
25214;DHT22;13160;51.834;4.706;2022-09-02T10:44:26;26.70;61.30
25214;DHT22;13160;51.834;4.706;2022-09-02T10:47:02;26.80;61.40
25214;DHT22;13160;51.834;4.706;2022-09-02T10:49:51;26.90;61.30
25214;DHT22;13160;51.834;4.706;2022-09-02T10:52:43;27.00;61.20
25214;DHT22;13160;51.834;4.706;2022-09-02T10:55:28;27.10;61.30
25214;DHT22;13160;51.834;4.706;2022-09-02T10:58:08;27.10;60.50
25214;DHT22;13160;51.834;4.706;2022-09-02T11:00:40;27.10;59.90
25214;DHT22;13160;51.834;4.706;2022-09-02T11:03:20;27.20;59.80
25214;DHT22;13160;51.834;4.706;2022-09-02T11:05:54;27.20;59.80
25214;DHT22;13160;51.834;4.706;2022-09-02T11:08:30;27.20;59.90
25214;DHT22;13160;51.834;4.706;2022-09-02T11:11:06;27.30;59.90
25214;DHT22;13160;51.834;4.706;2022-09-02T11:13:41;27.40;60.00
25214;DHT22;13160;51.834;4.706;2022-09-02T11:16:28;27.50;59.90
25214;DHT22;13160;51.834;4.706;2022-09-02T11:19:01;27.60;59.30
25214;DHT22;13160;51.834;4.706;2022-09-02T11:21:39;27.70;59.20
25214;DHT22;13160;51.834;4.706;2022-09-02T11:24:15;27.80;58.70
25214;DHT22;13160;51.834;4.706;2022-09-02T11:26:54;27.80;58.30
25214;DHT22;13160;51.834;4.706;2022-09-02T11:29:33;27.90;58.20
25214;DHT22;13160;51.834;4.706;2022-09-02T11:32:13;28.00;58.10
25214;DHT22;13160;51.834;4.706;2022-09-02T11:34:46;28.00;57.90
25214;DHT22;13160;51.834;4.706;2022-09-02T11:37:27;28.10;57.90
25214;DHT22;13160;51.834;4.706;2022-09-02T11:40:00;28.20;58.00
25214;DHT22;13160;51.834;4.706;2022-09-02T11:43:02;28.30;57.50
25214;DHT22;13160;51.834;4.706;2022-09-02T11:45:56;28.40;56.30
25214;DHT22;13160;51.834;4.706;2022-09-02T11:48:48;28.50;56.30
25214;DHT22;13160;51.834;4.706;2022-09-02T11:51:36;28.50;55.70
25214;DHT22;13160;51.834;4.706;2022-09-02T11:54:12;28.60;55.70
25214;DHT22;13160;51.834;4.706;2022-09-02T11:56:44;28.60;56.10
25214;DHT22;13160;51.834;4.706;2022-09-02T11:59:22;28.70;55.80
25214;DHT22;13160;51.834;4.706;2022-09-02T12:01:54;28.80;54.60
25214;DHT22;13160;51.834;4.706;2022-09-02T12:04:23;28.80;54.00
25214;DHT22;13160;51.834;4.706;2022-09-02T12:07:23;28.90;53.70
25214;DHT22;13160;51.834;4.706;2022-09-02T12:09:59;29.00;54.00
25214;DHT22;13160;51.834;4.706;2022-09-02T12:13:03;29.00;53.80
25214;DHT22;13160;51.834;4.706;2022-09-02T12:15:44;29.20;52.60
25214;DHT22;13160;51.834;4.706;2022-09-02T12:18:28;29.10;52.30
25214;DHT22;13160;51.834;4.706;2022-09-02T12:21:11;29.20;51.60
25214;DHT22;13160;51.834;4.706;2022-09-02T12:24:20;29.30;51.10
25214;DHT22;13160;51.834;4.706;2022-09-02T12:27:21;29.30;50.50
25214;DHT22;13160;51.834;4.706;2022-09-02T12:29:52;29.30;50.80
25214;DHT22;13160;51.834;4.706;2022-09-02T12:35:50;29.40;50.20
25214;DHT22;13160;51.834;4.706;2022-09-02T12:38:37;29.40;49.80
25214;DHT22;13160;51.834;4.706;2022-09-02T12:41:19;29.50;49.70
25214;DHT22;13160;51.834;4.706;2022-09-02T12:44:21;29.60;50.10
25214;DHT22;13160;51.834;4.706;2022-09-02T12:47:05;29.70;49.40
25214;DHT22;13160;51.834;4.706;2022-09-02T12:49:41;29.80;49.50
25214;DHT22;13160;51.834;4.706;2022-09-02T12:52:40;29.80;49.30
25214;DHT22;13160;51.834;4.706;2022-09-02T12:55:17;29.80;49.40
25214;DHT22;13160;51.834;4.706;2022-09-02T12:57:49;29.90;49.10
25214;DHT22;13160;51.834;4.706;2022-09-02T13:00:25;29.90;48.30
25214;DHT22;13160;51.834;4.706;2022-09-02T13:03:13;29.90;47.80
25214;DHT22;13160;51.834;4.706;2022-09-02T13:05:54;29.90;48.00
25214;DHT22;13160;51.834;4.706;2022-09-02T13:08:56;29.80;48.10
25214;DHT22;13160;51.834;4.706;2022-09-02T13:15:00;29.90;48.80
25214;DHT22;13160;51.834;4.706;2022-09-02T13:17:47;29.90;49.20
25214;DHT22;13160;51.834;4.706;2022-09-02T13:21:03;30.00;48.00
25214;DHT22;13160;51.834;4.706;2022-09-02T13:24:25;30.10;47.90
25214;DHT22;13160;51.834;4.706;2022-09-02T13:27:47;30.10;47.90
25214;DHT22;13160;51.834;4.706;2022-09-02T13:30:31;30.10;47.10
25214;DHT22;13160;51.834;4.706;2022-09-02T13:33:11;30.10;46.80
25214;DHT22;13160;51.834;4.706;2022-09-02T13:35:40;30.00;46.30
25214;DHT22;13160;51.834;4.706;2022-09-02T13:38:10;30.00;45.80
25214;DHT22;13160;51.834;4.706;2022-09-02T13:40:44;30.10;45.80
25214;DHT22;13160;51.834;4.706;2022-09-02T13:43:17;30.10;45.50
25214;DHT22;13160;51.834;4.706;2022-09-02T13:45:48;30.10;45.40
25214;DHT22;13160;51.834;4.706;2022-09-02T13:48:18;30.10;45.50
25214;DHT22;13160;51.834;4.706;2022-09-02T13:50:52;30.00;45.30
25214;DHT22;13160;51.834;4.706;2022-09-02T13:53:25;30.00;45.40
25214;DHT22;13160;51.834;4.706;2022-09-02T13:56:23;30.00;45.20
25214;DHT22;13160;51.834;4.706;2022-09-02T13:58:54;29.90;45.10
25214;DHT22;13160;51.834;4.706;2022-09-02T14:01:27;29.90;45.20
25214;DHT22;13160;51.834;4.706;2022-09-02T14:03:58;29.80;44.50
25214;DHT22;13160;51.834;4.706;2022-09-02T14:06:37;29.70;44.30
25214;DHT22;13160;51.834;4.706;2022-09-02T14:09:10;29.70;44.20
25214;DHT22;13160;51.834;4.706;2022-09-02T14:11:48;29.60;44.50
25214;DHT22;13160;51.834;4.706;2022-09-02T14:14:20;29.50;44.50
25214;DHT22;13160;51.834;4.706;2022-09-02T14:16:50;29.40;44.80
25214;DHT22;13160;51.834;4.706;2022-09-02T14:19:23;29.40;45.40
25214;DHT22;13160;51.834;4.706;2022-09-02T14:21:53;29.30;45.00
25214;DHT22;13160;51.834;4.706;2022-09-02T14:24:27;29.30;45.40
25214;DHT22;13160;51.834;4.706;2022-09-02T14:26:59;29.20;45.40
25214;DHT22;13160;51.834;4.706;2022-09-02T14:29:29;29.20;46.10
25214;DHT22;13160;51.834;4.706;2022-09-02T14:32:12;29.10;45.30
25214;DHT22;13160;51.834;4.706;2022-09-02T14:34:42;29.10;45.70
25214;DHT22;13160;51.834;4.706;2022-09-02T14:37:19;29.00;45.70
25214;DHT22;13160;51.834;4.706;2022-09-02T14:40:08;29.00;45.70
25214;DHT22;13160;51.834;4.706;2022-09-02T14:42:50;29.00;46.00
25214;DHT22;13160;51.834;4.706;2022-09-02T14:45:25;28.90;46.20
25214;DHT22;13160;51.834;4.706;2022-09-02T14:47:57;28.80;45.90
25214;DHT22;13160;51.834;4.706;2022-09-02T14:50:29;28.70;45.80
25214;DHT22;13160;51.834;4.706;2022-09-02T14:53:07;28.70;45.70
25214;DHT22;13160;51.834;4.706;2022-09-02T14:55:44;28.60;45.90
25214;DHT22;13160;51.834;4.706;2022-09-02T14:58:27;28.60;46.00
25214;DHT22;13160;51.834;4.706;2022-09-02T15:01:01;28.50;46.40
25214;DHT22;13160;51.834;4.706;2022-09-02T15:03:36;28.40;46.50
25214;DHT22;13160;51.834;4.706;2022-09-02T15:06:05;28.40;46.40
25214;DHT22;13160;51.834;4.706;2022-09-02T15:08:40;28.30;46.40
25214;DHT22;13160;51.834;4.706;2022-09-02T15:11:11;28.20;46.30
25214;DHT22;13160;51.834;4.706;2022-09-02T15:13:45;28.20;46.30
25214;DHT22;13160;51.834;4.706;2022-09-02T15:16:13;28.10;45.90
25214;DHT22;13160;51.834;4.706;2022-09-02T15:18:41;28.00;45.80
25214;DHT22;13160;51.834;4.706;2022-09-02T15:21:10;28.00;46.00
25214;DHT22;13160;51.834;4.706;2022-09-02T15:23:38;27.90;46.10
25214;DHT22;13160;51.834;4.706;2022-09-02T15:26:08;27.90;46.00
25214;DHT22;13160;51.834;4.706;2022-09-02T15:28:36;27.80;46.00
25214;DHT22;13160;51.834;4.706;2022-09-02T15:31:06;27.80;46.10
25214;DHT22;13160;51.834;4.706;2022-09-02T15:33:35;27.80;46.70
25214;DHT22;13160;51.834;4.706;2022-09-02T15:36:08;27.80;47.20
25214;DHT22;13160;51.834;4.706;2022-09-02T15:38:39;27.70;47.20
25214;DHT22;13160;51.834;4.706;2022-09-02T15:41:13;27.70;47.20
25214;DHT22;13160;51.834;4.706;2022-09-02T15:43:43;27.70;47.70
25214;DHT22;13160;51.834;4.706;2022-09-02T15:46:21;27.70;47.60
25214;DHT22;13160;51.834;4.706;2022-09-02T15:48:55;27.60;47.30
25214;DHT22;13160;51.834;4.706;2022-09-02T15:51:29;27.60;47.20
25214;DHT22;13160;51.834;4.706;2022-09-02T15:53:59;27.60;47.40
25214;DHT22;13160;51.834;4.706;2022-09-02T15:56:34;27.60;47.40
25214;DHT22;13160;51.834;4.706;2022-09-02T15:59:09;27.60;47.60
25214;DHT22;13160;51.834;4.706;2022-09-02T16:01:42;27.50;47.70
25214;DHT22;13160;51.834;4.706;2022-09-02T16:04:13;27.50;48.20
25214;DHT22;13160;51.834;4.706;2022-09-02T16:06:45;27.50;47.30
25214;DHT22;13160;51.834;4.706;2022-09-02T16:09:16;27.50;47.30
25214;DHT22;13160;51.834;4.706;2022-09-02T16:11:47;27.40;47.00
25214;DHT22;13160;51.834;4.706;2022-09-02T16:14:16;27.40;47.00
25214;DHT22;13160;51.834;4.706;2022-09-02T16:16:48;27.40;47.00
25214;DHT22;13160;51.834;4.706;2022-09-02T16:19:21;27.30;47.50
25214;DHT22;13160;51.834;4.706;2022-09-02T16:21:55;27.30;47.60
25214;DHT22;13160;51.834;4.706;2022-09-02T16:24:24;27.30;48.10
25214;DHT22;13160;51.834;4.706;2022-09-02T16:26:52;27.30;47.90
25214;DHT22;13160;51.834;4.706;2022-09-02T16:29:20;27.30;48.00
25214;DHT22;13160;51.834;4.706;2022-09-02T16:31:56;27.20;48.20
25214;DHT22;13160;51.834;4.706;2022-09-02T16:34:44;27.20;48.50
25214;DHT22;13160;51.834;4.706;2022-09-02T16:37:14;27.10;48.30
25214;DHT22;13160;51.834;4.706;2022-09-02T16:39:43;27.00;48.30
25214;DHT22;13160;51.834;4.706;2022-09-02T16:42:11;27.00;48.40
25214;DHT22;13160;51.834;4.706;2022-09-02T16:44:40;26.90;48.80
25214;DHT22;13160;51.834;4.706;2022-09-02T16:47:09;26.80;48.90
25214;DHT22;13160;51.834;4.706;2022-09-02T16:49:39;26.70;49.10
25214;DHT22;13160;51.834;4.706;2022-09-02T16:52:11;26.70;49.60
25214;DHT22;13160;51.834;4.706;2022-09-02T16:54:39;26.60;49.90
25214;DHT22;13160;51.834;4.706;2022-09-02T16:57:09;26.60;50.40
25214;DHT22;13160;51.834;4.706;2022-09-02T16:59:37;26.50;50.60
25214;DHT22;13160;51.834;4.706;2022-09-02T17:02:05;26.50;51.00
25214;DHT22;13160;51.834;4.706;2022-09-02T17:04:35;26.50;51.30
25214;DHT22;13160;51.834;4.706;2022-09-02T17:07:03;26.40;51.30
25214;DHT22;13160;51.834;4.706;2022-09-02T17:09:32;26.30;51.50
25214;DHT22;13160;51.834;4.706;2022-09-02T17:12:00;26.20;51.60
25214;DHT22;13160;51.834;4.706;2022-09-02T17:14:28;26.20;51.70
25214;DHT22;13160;51.834;4.706;2022-09-02T17:16:57;26.20;51.90
25214;DHT22;13160;51.834;4.706;2022-09-02T17:19:25;26.20;51.90
25214;DHT22;13160;51.834;4.706;2022-09-02T17:21:59;26.10;52.10
25214;DHT22;13160;51.834;4.706;2022-09-02T17:24:28;26.10;52.40
25214;DHT22;13160;51.834;4.706;2022-09-02T17:26:56;26.00;52.40
25214;DHT22;13160;51.834;4.706;2022-09-02T17:29:26;26.00;52.70
25214;DHT22;13160;51.834;4.706;2022-09-02T17:32:16;25.90;52.90
25214;DHT22;13160;51.834;4.706;2022-09-02T17:34:45;25.80;53.20
25214;DHT22;13160;51.834;4.706;2022-09-02T17:37:16;25.70;53.40
25214;DHT22;13160;51.834;4.706;2022-09-02T17:39:45;25.70;53.70
25214;DHT22;13160;51.834;4.706;2022-09-02T17:42:13;25.60;53.80
25214;DHT22;13160;51.834;4.706;2022-09-02T17:44:41;25.50;54.10
25214;DHT22;13160;51.834;4.706;2022-09-02T17:47:12;25.40;54.20
25214;DHT22;13160;51.834;4.706;2022-09-02T17:49:41;25.40;54.40
25214;DHT22;13160;51.834;4.706;2022-09-02T17:52:12;25.30;54.60
25214;DHT22;13160;51.834;4.706;2022-09-02T17:54:42;25.20;54.70
25214;DHT22;13160;51.834;4.706;2022-09-02T17:57:32;25.10;54.90
25214;DHT22;13160;51.834;4.706;2022-09-02T18:00:10;25.10;55.00
25214;DHT22;13160;51.834;4.706;2022-09-02T18:02:58;25.00;55.40
25214;DHT22;13160;51.834;4.706;2022-09-02T18:05:53;24.90;55.40
25214;DHT22;13160;51.834;4.706;2022-09-02T18:08:37;24.80;55.70
25214;DHT22;13160;51.834;4.706;2022-09-02T18:11:12;24.70;55.80
25214;DHT22;13160;51.834;4.706;2022-09-02T18:13:47;24.60;56.00
25214;DHT22;13160;51.834;4.706;2022-09-02T18:16:30;24.50;56.20
25214;DHT22;13160;51.834;4.706;2022-09-02T18:19:12;24.50;56.50
25214;DHT22;13160;51.834;4.706;2022-09-02T18:21:54;24.40;56.60
25214;DHT22;13160;51.834;4.706;2022-09-02T18:24:38;24.30;56.90
25214;DHT22;13160;51.834;4.706;2022-09-02T18:27:19;24.20;57.10
25214;DHT22;13160;51.834;4.706;2022-09-02T18:30:00;24.10;57.20
25214;DHT22;13160;51.834;4.706;2022-09-02T18:35:52;23.90;57.50
25214;DHT22;13160;51.834;4.706;2022-09-02T18:38:31;23.80;57.90
25214;DHT22;13160;51.834;4.706;2022-09-02T18:41:19;23.80;58.20
25214;DHT22;13160;51.834;4.706;2022-09-02T18:44:06;23.70;58.50
25214;DHT22;13160;51.834;4.706;2022-09-02T18:46:46;23.60;58.60
25214;DHT22;13160;51.834;4.706;2022-09-02T18:49:20;23.50;58.90
25214;DHT22;13160;51.834;4.706;2022-09-02T18:51:53;23.40;59.10
25214;DHT22;13160;51.834;4.706;2022-09-02T18:54:25;23.40;59.30
25214;DHT22;13160;51.834;4.706;2022-09-02T18:56:57;23.30;59.50
25214;DHT22;13160;51.834;4.706;2022-09-02T18:59:33;23.20;59.70
25214;DHT22;13160;51.834;4.706;2022-09-02T19:02:14;23.20;59.70
25214;DHT22;13160;51.834;4.706;2022-09-02T19:04:48;23.10;59.90
25214;DHT22;13160;51.834;4.706;2022-09-02T19:07:18;23.00;60.10
25214;DHT22;13160;51.834;4.706;2022-09-02T19:10:05;22.90;60.30
25214;DHT22;13160;51.834;4.706;2022-09-02T19:12:35;22.80;60.40
25214;DHT22;13160;51.834;4.706;2022-09-02T19:15:08;22.80;60.60
25214;DHT22;13160;51.834;4.706;2022-09-02T19:17:39;22.70;60.60
25214;DHT22;13160;51.834;4.706;2022-09-02T19:20:08;22.60;61.60
25214;DHT22;13160;51.834;4.706;2022-09-02T19:22:39;22.60;61.00
25214;DHT22;13160;51.834;4.706;2022-09-02T19:25:12;22.50;61.20
25214;DHT22;13160;51.834;4.706;2022-09-02T19:27:43;22.50;61.30
25214;DHT22;13160;51.834;4.706;2022-09-02T19:30:17;22.40;61.40
25214;DHT22;13160;51.834;4.706;2022-09-02T19:32:50;22.40;61.40
25214;DHT22;13160;51.834;4.706;2022-09-02T19:35:22;22.30;61.60
25214;DHT22;13160;51.834;4.706;2022-09-02T19:37:55;22.20;61.80
25214;DHT22;13160;51.834;4.706;2022-09-02T19:40:26;22.10;61.70
25214;DHT22;13160;51.834;4.706;2022-09-02T19:42:59;22.10;62.60
25214;DHT22;13160;51.834;4.706;2022-09-02T19:45:32;22.00;61.90
25214;DHT22;13160;51.834;4.706;2022-09-02T19:48:06;22.00;61.90
25214;DHT22;13160;51.834;4.706;2022-09-02T19:50:38;21.90;62.10
25214;DHT22;13160;51.834;4.706;2022-09-02T19:53:22;21.80;62.30
25214;DHT22;13160;51.834;4.706;2022-09-02T19:55:56;21.80;62.40
25214;DHT22;13160;51.834;4.706;2022-09-02T19:58:24;21.80;62.60
25214;DHT22;13160;51.834;4.706;2022-09-02T20:00:54;21.70;63.10
25214;DHT22;13160;51.834;4.706;2022-09-02T20:03:23;21.60;63.20
25214;DHT22;13160;51.834;4.706;2022-09-02T20:05:51;21.60;63.10
25214;DHT22;13160;51.834;4.706;2022-09-02T20:08:21;21.60;63.20
25214;DHT22;13160;51.834;4.706;2022-09-02T20:11:18;21.50;63.20
25214;DHT22;13160;51.834;4.706;2022-09-02T20:19:40;21.40;63.70
25214;DHT22;13160;51.834;4.706;2022-09-02T20:25:21;21.30;63.90
25214;DHT22;13160;51.834;4.706;2022-09-02T20:28:04;21.30;63.70
25214;DHT22;13160;51.834;4.706;2022-09-02T20:30:46;21.20;63.90
25214;DHT22;13160;51.834;4.706;2022-09-02T20:33:23;21.20;64.10
25214;DHT22;13160;51.834;4.706;2022-09-02T20:36:03;21.10;64.00
25214;DHT22;13160;51.834;4.706;2022-09-02T20:39:01;21.10;64.30
25214;DHT22;13160;51.834;4.706;2022-09-02T20:41:38;21.10;64.50
25214;DHT22;13160;51.834;4.706;2022-09-02T20:47:41;21.00;65.00
25214;DHT22;13160;51.834;4.706;2022-09-02T20:50:34;20.90;65.40
25214;DHT22;13160;51.834;4.706;2022-09-02T20:53:24;20.90;65.60
25214;DHT22;13160;51.834;4.706;2022-09-02T20:56:16;20.80;65.90
25214;DHT22;13160;51.834;4.706;2022-09-02T20:58:53;20.70;66.20
25214;DHT22;13160;51.834;4.706;2022-09-02T21:01:29;20.70;66.50
25214;DHT22;13160;51.834;4.706;2022-09-02T21:04:06;20.70;66.70
25214;DHT22;13160;51.834;4.706;2022-09-02T21:06:50;20.60;66.90
25214;DHT22;13160;51.834;4.706;2022-09-02T21:09:27;20.60;67.20
25214;DHT22;13160;51.834;4.706;2022-09-02T21:12:19;20.50;67.20
25214;DHT22;13160;51.834;4.706;2022-09-02T21:14:59;20.50;67.30
25214;DHT22;13160;51.834;4.706;2022-09-02T21:17:39;20.50;67.60
25214;DHT22;13160;51.834;4.706;2022-09-02T21:20:19;20.40;67.60
25214;DHT22;13160;51.834;4.706;2022-09-02T21:22:55;20.40;67.90
25214;DHT22;13160;51.834;4.706;2022-09-02T21:25:32;20.40;68.20
25214;DHT22;13160;51.834;4.706;2022-09-02T21:28:10;20.30;68.10
25214;DHT22;13160;51.834;4.706;2022-09-02T21:30:44;20.30;68.20
25214;DHT22;13160;51.834;4.706;2022-09-02T21:33:16;20.30;68.40
25214;DHT22;13160;51.834;4.706;2022-09-02T21:35:49;20.20;68.30
25214;DHT22;13160;51.834;4.706;2022-09-02T21:38:27;20.20;68.40
25214;DHT22;13160;51.834;4.706;2022-09-02T21:41:12;20.20;68.30
25214;DHT22;13160;51.834;4.706;2022-09-02T21:44:01;20.20;68.40
25214;DHT22;13160;51.834;4.706;2022-09-02T21:46:44;20.10;68.50
25214;DHT22;13160;51.834;4.706;2022-09-02T21:49:37;20.10;68.60
25214;DHT22;13160;51.834;4.706;2022-09-02T21:52:26;20.10;68.60
25214;DHT22;13160;51.834;4.706;2022-09-02T21:55:04;20.10;68.80
25214;DHT22;13160;51.834;4.706;2022-09-02T21:57:50;20.00;68.90
25214;DHT22;13160;51.834;4.706;2022-09-02T22:00:29;20.00;68.90
25214;DHT22;13160;51.834;4.706;2022-09-02T22:03:01;19.90;69.10
25214;DHT22;13160;51.834;4.706;2022-09-02T22:05:47;20.00;69.20
25214;DHT22;13160;51.834;4.706;2022-09-02T22:08:25;19.90;69.20
25214;DHT22;13160;51.834;4.706;2022-09-02T22:11:05;19.90;69.30
25214;DHT22;13160;51.834;4.706;2022-09-02T22:13:39;19.90;69.40
25214;DHT22;13160;51.834;4.706;2022-09-02T22:16:19;19.90;69.60
25214;DHT22;13160;51.834;4.706;2022-09-02T22:19:03;19.90;69.60
25214;DHT22;13160;51.834;4.706;2022-09-02T22:21:40;19.80;69.70
25214;DHT22;13160;51.834;4.706;2022-09-02T22:24:15;19.80;69.90
25214;DHT22;13160;51.834;4.706;2022-09-02T22:26:50;19.80;70.10
25214;DHT22;13160;51.834;4.706;2022-09-02T22:29:33;19.80;70.30
25214;DHT22;13160;51.834;4.706;2022-09-02T22:32:09;19.80;70.30
25214;DHT22;13160;51.834;4.706;2022-09-02T22:34:49;19.70;70.50
25214;DHT22;13160;51.834;4.706;2022-09-02T22:37:31;19.70;70.50
25214;DHT22;13160;51.834;4.706;2022-09-02T22:40:09;19.70;70.60
25214;DHT22;13160;51.834;4.706;2022-09-02T22:42:45;19.70;70.60
25214;DHT22;13160;51.834;4.706;2022-09-02T22:45:31;19.70;70.60
25214;DHT22;13160;51.834;4.706;2022-09-02T22:48:22;19.70;70.60
25214;DHT22;13160;51.834;4.706;2022-09-02T22:51:14;19.60;70.60
25214;DHT22;13160;51.834;4.706;2022-09-02T22:54:04;19.60;70.70
25214;DHT22;13160;51.834;4.706;2022-09-02T22:56:40;19.60;70.80
25214;DHT22;13160;51.834;4.706;2022-09-02T22:59:29;19.60;70.90
25214;DHT22;13160;51.834;4.706;2022-09-02T23:02:21;19.60;70.90
25214;DHT22;13160;51.834;4.706;2022-09-02T23:05:07;19.60;71.10
25214;DHT22;13160;51.834;4.706;2022-09-02T23:08:04;19.50;71.00
25214;DHT22;13160;51.834;4.706;2022-09-02T23:10:38;19.50;71.10
25214;DHT22;13160;51.834;4.706;2022-09-02T23:13:19;19.50;71.20
25214;DHT22;13160;51.834;4.706;2022-09-02T23:16:03;19.50;71.20
25214;DHT22;13160;51.834;4.706;2022-09-02T23:18:52;19.50;71.20
25214;DHT22;13160;51.834;4.706;2022-09-02T23:21:35;19.50;71.20
25214;DHT22;13160;51.834;4.706;2022-09-02T23:24:19;19.50;70.90
25214;DHT22;13160;51.834;4.706;2022-09-02T23:26:58;19.50;71.00
25214;DHT22;13160;51.834;4.706;2022-09-02T23:29:31;19.50;71.90
25214;DHT22;13160;51.834;4.706;2022-09-02T23:35:14;19.60;71.10
25214;DHT22;13160;51.834;4.706;2022-09-02T23:38:07;19.60;71.10
25214;DHT22;13160;51.834;4.706;2022-09-02T23:40:47;19.60;71.00
25214;DHT22;13160;51.834;4.706;2022-09-02T23:43:23;19.60;71.10
25214;DHT22;13160;51.834;4.706;2022-09-02T23:45:58;19.60;71.20
25214;DHT22;13160;51.834;4.706;2022-09-02T23:48:39;19.60;71.30
25214;DHT22;13160;51.834;4.706;2022-09-02T23:51:17;19.60;71.00
25214;DHT22;13160;51.834;4.706;2022-09-02T23:54:06;19.60;71.30
25214;DHT22;13160;51.834;4.706;2022-09-02T23:57:00;19.60;71.20
